Albatros — C6CN4 — position and weather

sailwx.info

Track history (hours):
 
Tides and Currents Weather Stations Pressure Air Temp Water Temp Dewpoint Dewpoint Depression Visibility Wind Speed Wind Dir Waves Ship Positions

Albatros

Last reported at 2018-Jul-22 07:00 UTC. Time now 2018-Jul-22 07:03 UTC.
Position N 58°42' E 009°15'.

Length 205.5 m; beam 25.2 m; draft 7.6 m.

Type: Passenger vessel. MMSI: 308784000.

Date/timePositionNaut miles runAvg speedWind from/ knotsBaromVisibWave heightAir tempDewpointWater temp
2018-Jul-22 07:00N 58°42' E 009°15'0 0.1
2018-Jul-22 06:30N 58°42' E 009°15'0 0.1
2018-Jul-22 06:00N 58°42' E 009°15'0 0.1
2018-Jul-22 05:29N 58°42' E 009°15'0 0.3
2018-Jul-22 05:00N 58°42' E 009°15'1 1.7
2018-Jul-22 04:29N 58°42' E 009°16'714.1
2018-Jul-22 04:00N 58°45' E 009°28'815.4
2018-Jul-22 03:30N 58°51' E 009°38'714.5
2018-Jul-22 03:00N 58°56' E 009°48'4 8.1
2018-Jul-22 02:30N 58°54' E 009°54'4 7.4
2018-Jul-22 02:00N 58°52' E 010°00'3 6.7
2018-Jul-22 01:30N 58°51' E 010°06'3 6.9
2018-Jul-22 01:00N 58°49' E 010°12'3 6.0
2018-Jul-22 00:30N 58°48' E 010°18'2 4.6
2018-Jul-22 00:00N 58°49' E 010°22'3 6.5
2018-Jul-21 23:30N 58°51' E 010°27'511.1
2018-Jul-21 23:01N 58°56' E 010°32'713.6
2018-Jul-21 22:30N 59°03' E 010°34'510.7
2018-Jul-21 22:01N 59°08' E 010°37'713.0
2018-Jul-21 21:30N 59°15' E 010°37'714.1
2018-Jul-21 21:00N 59°22' E 010°34'713.9
2018-Jul-21 20:30N 59°28' E 010°33'714.4
2018-Jul-21 20:00N 59°35' E 010°38'612.5
2018-Jul-21 19:31N 59°41' E 010°36'611.5
2018-Jul-21 19:00N 59°47' E 010°34'713.4
2018-Jul-21 18:30N 59°53' E 010°40'3 5.0
2018-Jul-21 18:00N 59°54' E 010°44'0 0.0
2018-Jul-21 17:30N 59°54' E 010°44'0 0.0
2018-Jul-21 17:00N 59°54' E 010°44'0 0.0
2018-Jul-21 16:30N 59°54' E 010°44'0 0.0
2018-Jul-21 16:00N 59°54' E 010°44'0 0.0
2018-Jul-21 15:30N 59°54' E 010°44'0 0.0
2018-Jul-21 15:00N 59°54' E 010°44'0 0.0
2018-Jul-21 14:30N 59°54' E 010°44'0 0.0
2018-Jul-21 13:30N 59°54' E 010°44'0 0.0
2018-Jul-21 13:00N 59°54' E 010°44'0 0.0
2018-Jul-21 12:30N 59°54' E 010°44'0 0.0
2018-Jul-21 12:00N 59°54' E 010°44'0 0.0
2018-Jul-21 11:30N 59°54' E 010°44'0 0.0
2018-Jul-21 11:00N 59°54' E 010°44'0 0.0
2018-Jul-21 10:30N 59°54' E 010°44'0 0.0
2018-Jul-21 10:00N 59°54' E 010°44'0 0.0
2018-Jul-21 09:30N 59°54' E 010°44'0 0.0
2018-Jul-21 09:00N 59°54' E 010°44'0 0.0
2018-Jul-21 08:30N 59°54' E 010°44'0 0.0
2018-Jul-21 08:00N 59°54' E 010°44'0 0.0
2018-Jul-21 07:30N 59°54' E 010°44'0 0.0
2018-Jul-21 07:00N 59°54' E 010°44'1 1.1
2018-Jul-21 06:30N 59°54' E 010°43'611.2
2018-Jul-21 06:00N 59°50' E 010°36'714.9
2018-Jul-21 05:30N 59°42' E 010°36'612.0
2018-Jul-21 05:00N 59°37' E 010°38'917.0
2018-Jul-21 04:30N 59°28' E 010°34'917.5
2018-Jul-21 04:00N 59°20' E 010°36'816.9
2018-Jul-21 03:30N 59°11' E 010°39'713.9
2018-Jul-21 03:01N 59°05' E 010°35'510.5
2018-Jul-21 02:31N 58°59' E 010°35'612.4
2018-Jul-21 02:00N 58°53' E 010°34'612.2
2018-Jul-21 01:31N 58°47' E 010°34'5 9.4
2018-Jul-21 01:00N 58°42' E 010°34'510.5
2018-Jul-21 00:31N 58°37' E 010°34'4 7.8
2018-Jul-21 00:01N 58°33' E 010°34'4 7.6
2018-Jul-20 23:31N 58°29' E 010°34'4 7.5
2018-Jul-20 23:01N 58°26' E 010°36'4 7.5
2018-Jul-20 22:30N 58°22' E 010°37'4 8.3
2018-Jul-20 22:00N 58°18' E 010°38'4 9.0
2018-Jul-20 21:31N 58°14' E 010°40'5 9.9
2018-Jul-20 21:01N 58°09' E 010°41'4 9.0
2018-Jul-20 20:31N 58°04' E 010°43'4 8.8
2018-Jul-20 20:01N 57°60' E 010°44'5 9.1
2018-Jul-20 19:31N 57°55' E 010°45'611.6
2018-Jul-20 19:00N 57°50' E 010°46'612.8
2018-Jul-20 18:30N 57°44' E 010°42'4 7.5
2018-Jul-20 18:00N 57°43' E 010°35'0 0.0
2018-Jul-20 17:25N 57°43' E 010°35'0 0.0
2018-Jul-20 16:55N 57°43' E 010°35'0 0.0
2018-Jul-20 16:25N 57°43' E 010°35'0 0.0
2018-Jul-20 15:55N 57°43' E 010°35'0 0.0
2018-Jul-20 15:25N 57°43' E 010°35'0 0.0
2018-Jul-20 14:55N 57°43' E 010°35'0 0.0
2018-Jul-20 14:28N 57°43' E 010°35'0 0.0
2018-Jul-20 13:52N 57°43' E 010°35'0 0.0
2018-Jul-20 12:34N 57°43' E 010°35'0 0.0
2018-Jul-20 12:22N 57°43' E 010°35'0 0.0
2018-Jul-20 11:16N 57°43' E 010°35'0 0.0
2018-Jul-20 10:56N 57°43' E 010°35'0 0.0
2018-Jul-20 10:29N 57°43' E 010°35'0 0.0
2018-Jul-20 09:55N 57°43' E 010°35'0 0.0
2018-Jul-20 09:30N 57°43' E 010°35'0 0.0
2018-Jul-20 08:51N 57°43' E 010°35'0 0.0
2018-Jul-20 08:29N 57°43' E 010°35'0 0.0
2018-Jul-20 07:58N 57°43' E 010°35'0 0.0
2018-Jul-20 07:30N 57°43' E 010°35'0 0.0
2018-Jul-20 07:00N 57°43' E 010°35'0 0.0
2018-Jul-20 06:31N 57°43' E 010°35'1 2.7
2018-Jul-20 06:00N 57°43' E 010°38'4 8.4
2018-Jul-20 05:30N 57°42' E 010°46'612.7
2018-Jul-20 05:00N 57°41' E 010°57'611.9
2018-Jul-20 04:30N 57°38' E 011°07'612.4
2018-Jul-20 04:00N 57°33' E 011°15'612.3
2018-Jul-20 03:30N 57°29' E 011°24'612.0
2018-Jul-20 03:00N 57°24' E 011°29'612.8
2018-Jul-20 02:31N 57°18' E 011°33'612.8
2018-Jul-20 02:00N 57°12' E 011°37'612.4
2018-Jul-20 01:30N 57°06' E 011°41'713.3
2018-Jul-20 01:00N 56°60' E 011°45'714.1
2018-Jul-20 00:30N 56°53' E 011°50'713.8
2018-Jul-20 00:00N 56°47' E 011°54'713.8
2018-Jul-19 23:28N 56°39' E 011°57'3612.7
2018-Jul-19 20:36N 56°08' E 012°31'113.1
2018-Jul-19 20:30N 56°07' E 012°32'612.8
2018-Jul-19 20:01N 56°02' E 012°40'612.8
2018-Jul-19 19:31N 55°56' E 012°43'613.0
2018-Jul-19 19:00N 55°50' E 012°45'612.9
2018-Jul-19 18:30N 55°44' E 012°40'3 5.8
2018-Jul-19 18:00N 55°42' E 012°36'0 0.0
2018-Jul-19 17:30N 55°42' E 012°36'0 0.0
2018-Jul-19 17:00N 55°42' E 012°36'0 0.0
2018-Jul-19 16:30N 55°42' E 012°36'0 0.0
2018-Jul-19 16:00N 55°42' E 012°36'0 0.0
2018-Jul-19 15:30N 55°42' E 012°36'0 0.0
2018-Jul-19 15:00N 55°42' E 012°36'0 0.0
2018-Jul-19 14:00N 55°42' E 012°36'0 0.0
2018-Jul-19 13:24N 55°42' E 012°36'0 0.0
2018-Jul-19 13:00N 55°42' E 012°36'0 0.0
2018-Jul-19 12:30N 55°42' E 012°36'0 0.0
2018-Jul-19 12:00N 55°42' E 012°36'0 0.0
2018-Jul-19 11:30N 55°42' E 012°36'0 0.0
2018-Jul-19 10:54N 55°42' E 012°36'0 0.0
2018-Jul-19 10:30N 55°42' E 012°36'0 0.0
2018-Jul-19 10:00N 55°42' E 012°36'0 0.0
2018-Jul-19 09:30N 55°42' E 012°36'0 0.0
2018-Jul-19 09:00N 55°42' E 012°36'0 0.0
2018-Jul-19 08:30N 55°42' E 012°36'0 0.0
2018-Jul-19 08:00N 55°42' E 012°36'0 0.0
2018-Jul-19 07:30N 55°42' E 012°36'0 0.0
2018-Jul-19 07:00N 55°42' E 012°36'0 0.0
2018-Jul-19 06:30N 55°42' E 012°36'0 0.0
2018-Jul-19 06:00N 55°42' E 012°36'0 0.0
2018-Jul-19 05:30N 55°42' E 012°36'0 0.0
2018-Jul-19 05:00N 55°42' E 012°36'0 0.0
2018-Jul-19 04:30N 55°42' E 012°36'0 0.0
2018-Jul-19 04:00N 55°42' E 012°36'0 0.0
2018-Jul-19 03:30N 55°42' E 012°36'0 0.0
2018-Jul-19 03:00N 55°42' E 012°36'0 0.0
2018-Jul-19 02:30N 55°42' E 012°36'0 0.0
2018-Jul-19 02:00N 55°42' E 012°36'0 0.0
2018-Jul-19 01:30N 55°42' E 012°36'0 0.0
2018-Jul-19 01:00N 55°42' E 012°36'0 0.0
2018-Jul-19 00:30N 55°42' E 012°36'0 0.0
2018-Jul-19 00:00N 55°42' E 012°36'0 0.0
2018-Jul-18 23:30N 55°42' E 012°36'0 0.0
2018-Jul-18 23:00N 55°42' E 012°36'0 0.0
2018-Jul-18 22:30N 55°42' E 012°36'0 0.0
2018-Jul-18 22:00N 55°42' E 012°36'0 0.0
2018-Jul-18 21:30N 55°42' E 012°36'0 0.0
2018-Jul-18 21:00N 55°42' E 012°36'0 0.0
2018-Jul-18 20:30N 55°42' E 012°36'0 0.0
2018-Jul-18 20:00N 55°42' E 012°36'0 0.0
2018-Jul-18 19:30N 55°42' E 012°36'0 0.0
2018-Jul-18 18:59N 55°42' E 012°36'1 1.7
2018-Jul-18 18:30N 55°43' E 012°37'3 6.8
2018-Jul-18 18:00N 55°40' E 012°41'510.7
2018-Jul-18 17:30N 55°35' E 012°42'510.0
2018-Jul-18 17:00N 55°30' E 012°43'612.9
2018-Jul-18 16:30N 55°24' E 012°41'713.1
2018-Jul-18 16:01N 55°17' E 012°45'816.8
2018-Jul-18 15:30N 55°14' E 012°58'917.1
2018-Jul-18 15:00N 55°09' E 013°11'1816.7
2018-Jul-18 13:56N 54°56' E 013°33'15 2.9
2018-Jul-18 08:31N 54°41' E 013°38'211.5
2018-Jul-18 08:22N 54°42' E 013°36'812.8
2018-Jul-18 07:46N 54°49' E 013°29'412.9
2018-Jul-18 07:29N 54°50' E 013°23'812.2
2018-Jul-18 06:48N 54°49' E 013°09'1812.8
2018-Jul-18 05:24N 54°43' E 012°39'712.9
2018-Jul-18 04:53N 54°39' E 012°30'613.6
2018-Jul-18 04:29N 54°36' E 012°22'813.9
2018-Jul-18 03:55N 54°29' E 012°16'513.2
2018-Jul-18 03:30N 54°25' E 012°10'713.0
2018-Jul-18 03:00N 54°24' E 011°59'713.5
2018-Jul-18 02:30N 54°24' E 011°48'713.4
2018-Jul-18 02:00N 54°27' E 011°37'714.0
2018-Jul-18 01:30N 54°30' E 011°27'713.5
2018-Jul-18 01:00N 54°33' E 011°16'713.4
2018-Jul-18 00:31N 54°35' E 011°05'713.7
2018-Jul-18 00:00N 54°34' E 010°53'714.2
2018-Jul-17 23:30N 54°34' E 010°41'713.9
2018-Jul-17 23:00N 54°33' E 010°29'713.7
2018-Jul-17 22:30N 54°34' E 010°18'713.1
2018-Jul-17 22:00N 54°32' E 010°06'10 1.3
2018-Jul-17 14:13N 54°28' E 009°51'0 0.0
2018-Jul-17 11:22N 54°28' E 009°51'0 0.0
2018-Jul-17 10:37N 54°28' E 009°51'0 0.0
2018-Jul-17 10:28N 54°28' E 009°51'14 9.1
2018-Jul-17 08:54N 54°33' E 010°14'510.1
2018-Jul-17 08:26N 54°29' E 010°17'612.8
2018-Jul-17 08:00N 54°24' E 010°12'3 6.4
2018-Jul-17 07:31N 54°22' E 010°09'0 0.2
2018-Jul-17 07:00N 54°22' E 010°08'2 4.6
2018-Jul-17 06:31N 54°22' E 010°05'4 7.4
2018-Jul-17 05:55N 54°21' E 009°58'4 8.1
2018-Jul-17 05:27N 54°22' E 009°51'3 7.8
2018-Jul-17 05:01N 54°21' E 009°46'4 8.1
2018-Jul-17 04:30N 54°18' E 009°41'3 5.5
2018-Jul-17 04:01N 54°16' E 009°38'1 2.2
2018-Jul-17 03:30N 54°15' E 009°37'3 6.8
2018-Jul-17 03:00N 54°12' E 009°34'4 8.5
2018-Jul-17 02:31N 54°11' E 009°27'4 7.4
2018-Jul-17 02:01N 54°09' E 009°21'4 7.8
2018-Jul-17 01:30N 54°05' E 009°19'4 8.4
2018-Jul-17 01:00N 54°01' E 009°18'4 7.9
2018-Jul-17 00:30N 53°58' E 009°15'5 5.3
2018-Jul-16 23:31N 53°54' E 009°09'1 2.0
2018-Jul-16 23:00N 53°53' E 009°07'3 6.8
2018-Jul-16 22:31N 53°52' E 009°02'611.7
2018-Jul-16 22:00N 53°50' E 008°52'510.6
2018-Jul-16 21:30N 53°52' E 008°44'613.0
2018-Jul-16 21:00N 53°57' E 008°37'816.7
2018-Jul-16 20:30N 53°59' E 008°24'816.8
2018-Jul-16 20:00N 53°59' E 008°09'917.9
2018-Jul-16 19:30N 53°55' E 007°56'713.2
2018-Jul-16 19:00N 53°50' E 008°03'1020.2
2018-Jul-16 18:30N 53°44' E 008°16'1020.5
2018-Jul-16 18:00N 53°37' E 008°29'4 7.9
2018-Jul-16 17:30N 53°34' E 008°33'0 0.0
2018-Jul-16 17:00N 53°34' E 008°33'0 0.0
2018-Jul-16 16:27N 53°34' E 008°33'0 0.0
2018-Jul-16 16:00N 53°34' E 008°33'0 0.0
2018-Jul-16 15:30N 53°34' E 008°33'0 0.0
2018-Jul-16 15:00N 53°34' E 008°33'0 0.0
2018-Jul-16 14:30N 53°34' E 008°33'0 0.0
2018-Jul-16 14:00N 53°34' E 008°33'0 0.0
2018-Jul-16 13:30N 53°34' E 008°33'0 0.0
2018-Jul-16 13:00N 53°34' E 008°33'0 0.0
2018-Jul-16 12:30N 53°34' E 008°33'0 0.0
2018-Jul-16 11:57N 53°34' E 008°33'0 0.0
2018-Jul-16 11:30N 53°34' E 008°33'0 0.0
2018-Jul-16 11:00N 53°34' E 008°33'0 0.0
2018-Jul-16 10:30N 53°34' E 008°33'0 0.0
2018-Jul-16 10:00N 53°34' E 008°33'0 0.0
2018-Jul-16 09:30N 53°34' E 008°33'0 0.0
2018-Jul-16 09:00N 53°34' E 008°33'0 0.0
2018-Jul-16 08:30N 53°34' E 008°33'0 0.0
2018-Jul-16 08:00N 53°34' E 008°33'0 0.0
2018-Jul-16 07:30N 53°34' E 008°33'0 0.0
2018-Jul-16 07:00N 53°34' E 008°33'0 0.0
2018-Jul-16 06:30N 53°34' E 008°33'0 0.0
2018-Jul-16 06:00N 53°34' E 008°33'1 1.6
2018-Jul-16 05:30N 53°34' E 008°32'510.3
2018-Jul-16 05:00N 53°38' E 008°26'611.9
2018-Jul-16 04:30N 53°42' E 008°19'713.7
2018-Jul-16 04:00N 53°46' E 008°10'713.8
2018-Jul-16 03:30N 53°51' E 008°01'713.4
2018-Jul-16 03:00N 53°52' E 007°50'611.1
2018-Jul-16 02:30N 53°54' E 007°41'713.0
2018-Jul-16 02:00N 53°60' E 007°36'713.8
2018-Jul-16 01:30N 54°06' E 007°31'714.0
2018-Jul-16 01:01N 54°12' E 007°25'815.0
2018-Jul-16 00:30N 54°19' E 007°20'815.1
2018-Jul-16 00:00N 54°26' E 007°15'815.0
2018-Jul-15 23:30N 54°33' E 007°10'815.2
2018-Jul-15 23:00N 54°40' E 007°05'915.4
2018-Jul-15 22:26N 54°48' E 006°59'18016.4
2018-Jul-15 11:29N 57°48' E 006°49'817.4
2018-Jul-15 11:00N 57°56' E 006°50'713.7
2018-Jul-15 10:29N 58°03' E 006°51'4 8.6
2018-Jul-15 10:00N 58°03' E 006°59'4 8.6
2018-Jul-15 09:30N 58°07' E 007°03'0 0.2
2018-Jul-15 08:59N 58°07' E 007°03'0 0.1
2018-Jul-15 08:30N 58°07' E 007°03'0 0.1
2018-Jul-15 08:00N 58°07' E 007°03'0 0.1
2018-Jul-15 07:28N 58°07' E 007°03'0 0.2
2018-Jul-15 07:00N 58°07' E 007°03'0 0.1
2018-Jul-15 06:30N 58°07' E 007°03'0 0.1
2018-Jul-15 06:00N 58°07' E 007°03'0 0.0
2018-Jul-15 05:30N 58°07' E 007°03'3 6.1
2018-Jul-15 05:00N 58°05' E 007°00'612.6
2018-Jul-15 04:30N 58°01' E 006°50'611.1
2018-Jul-15 04:00N 58°01' E 006°40'712.6
2018-Jul-15 03:29N 58°02' E 006°27'612.7
2018-Jul-15 03:00N 58°06' E 006°18'713.0
2018-Jul-15 02:27N 58°11' E 006°08'613.1
2018-Jul-15 02:00N 58°15' E 005°60'713.1
2018-Jul-15 01:29N 58°19' E 005°50'613.3
2018-Jul-15 01:00N 58°24' E 005°41'613.1
2018-Jul-15 00:30N 58°27' E 005°31'713.2
2018-Jul-15 00:01N 58°32' E 005°23'714.8
2018-Jul-14 23:31N 58°39' E 005°17'815.1
2018-Jul-14 23:00N 58°46' E 005°10'815.1
2018-Jul-14 22:30N 58°53' E 005°04'814.9
2018-Jul-14 21:59N 58°60' E 004°57'2713.6
2018-Jul-14 19:59N 59°26' E 004°44'714.3
2018-Jul-14 19:30N 59°33' E 004°46'714.4
2018-Jul-14 19:00N 59°40' E 004°48'714.7
2018-Jul-14 18:30N 59°47' E 004°50'714.4
2018-Jul-14 18:00N 59°54' E 004°52'714.2
2018-Jul-14 17:30N 60°01' E 004°54'714.1
2018-Jul-14 17:00N 60°08' E 004°57'713.1
2018-Jul-14 16:29N 60°11' E 005°10'713.7
2018-Jul-14 15:59N 60°17' E 005°11'611.8
2018-Jul-14 15:30N 60°23' E 005°10'4 8.1
2018-Jul-14 14:59N 60°24' E 005°19'0 0.1
2018-Jul-14 14:31N 60°24' E 005°19'0 0.0
2018-Jul-14 13:31N 60°24' E 005°19'0 0.0
2018-Jul-14 13:01N 60°24' E 005°19'0 0.0
2018-Jul-14 12:31N 60°24' E 005°19'0 0.0
2018-Jul-14 12:01N 60°24' E 005°19'0 0.0
2018-Jul-14 11:30N 60°24' E 005°19'0 0.0
2018-Jul-14 10:57N 60°24' E 005°19'0 0.0
2018-Jul-14 10:30N 60°24' E 005°19'0 0.0
2018-Jul-14 10:00N 60°24' E 005°19'0 0.0
2018-Jul-14 09:31N 60°24' E 005°19'0 0.0
2018-Jul-14 09:00N 60°24' E 005°19'0 0.0
2018-Jul-14 08:31N 60°24' E 005°19'0 0.0
2018-Jul-14 08:00N 60°24' E 005°19'0 0.0
2018-Jul-14 07:27N 60°24' E 005°19'0 0.0
2018-Jul-14 07:00N 60°24' E 005°19'0 0.8
2018-Jul-14 06:30N 60°24' E 005°18'4 7.9
2018-Jul-14 05:59N 60°23' E 005°10'611.4
2018-Jul-14 05:30N 60°27' E 005°01'715.2
2018-Jul-14 05:01N 60°34' E 004°55'815.2
2018-Jul-14 04:31N 60°41' E 004°50'714.7
2018-Jul-14 04:01N 60°45' E 004°38'816.5
2018-Jul-14 03:31N 60°50' E 004°25'9215.5
2018-Jul-13 21:35N 62°22' E 004°46'117.4
2018-Jul-13 21:30N 62°22' E 004°49'917.6
2018-Jul-13 21:00N 62°24' E 005°07'917.5
2018-Jul-13 20:31N 62°26' E 005°25'917.4
2018-Jul-13 20:00N 62°27' E 005°44'917.3
2018-Jul-13 19:30N 62°27' E 006°03'3 5.9
2018-Jul-13 18:58N 62°28' E 006°09'0 0.0
2018-Jul-13 18:28N 62°28' E 006°09'0 0.0
2018-Jul-13 17:58N 62°28' E 006°09'0 0.0
2018-Jul-13 17:28N 62°28' E 006°09'0 0.0
2018-Jul-13 16:59N 62°28' E 006°09'1 1.8
2018-Jul-13 16:31N 62°28' E 006°11'4 8.5
2018-Jul-13 16:00N 62°24' E 006°07'1019.0
2018-Jul-13 15:30N 62°25' E 006°27'918.6
2018-Jul-13 15:00N 62°27' E 006°47'1717.2
2018-Jul-13 14:00N 62°11' E 007°01'610.9
2018-Jul-13 13:29N 62°06' E 007°04'2 4.0
2018-Jul-13 13:00N 62°07' E 007°07'2 4.3
2018-Jul-13 12:25N 62°06' E 007°12'0 0.0
2018-Jul-13 11:55N 62°06' E 007°12'0 0.0
2018-Jul-13 11:25N 62°06' E 007°12'0 0.0
2018-Jul-13 10:49N 62°06' E 007°12'0 0.0
2018-Jul-13 10:25N 62°06' E 007°12'0 0.0
2018-Jul-13 09:55N 62°06' E 007°12'0 0.0
2018-Jul-13 09:25N 62°06' E 007°12'0 0.0
2018-Jul-13 08:55N 62°06' E 007°12'0 0.0
2018-Jul-13 08:25N 62°06' E 007°12'0 0.0
2018-Jul-13 07:55N 62°06' E 007°12'0 0.0
2018-Jul-13 07:25N 62°06' E 007°12'0 0.0
2018-Jul-13 06:55N 62°06' E 007°12'0 0.0
2018-Jul-13 06:25N 62°06' E 007°12'0 0.0
2018-Jul-13 05:55N 62°06' E 007°12'0 0.0
2018-Jul-13 05:25N 62°06' E 007°12'0 0.0
2018-Jul-13 04:55N 62°06' E 007°12'0 0.1
2018-Jul-13 04:24N 62°06' E 007°12'1 1.5
2018-Jul-13 04:00N 62°07' E 007°11'4 8.8
2018-Jul-13 03:30N 62°06' E 007°02'4 8.8
2018-Jul-13 03:00N 62°10' E 007°01'612.7
2018-Jul-13 02:30N 62°16' E 007°01'612.6
2018-Jul-13 02:00N 62°22' E 006°56'611.3
2018-Jul-13 01:30N 62°27' E 006°49'714.2
2018-Jul-13 01:00N 62°26' E 006°34'715.1
2018-Jul-13 00:30N 62°24' E 006°18'713.7
2018-Jul-12 23:58N 62°25' E 006°03'612.3
2018-Jul-12 23:31N 62°30' E 006°09'712.9
2018-Jul-12 23:00N 62°36' E 006°08'3 6.1
2018-Jul-12 22:30N 62°38' E 006°14'612.7
2018-Jul-12 22:00N 62°38' E 006°28'713.2
2018-Jul-12 21:30N 62°39' E 006°42'713.3
2018-Jul-12 21:00N 62°42' E 006°55'612.4
2018-Jul-12 20:29N 62°40' E 007°09'612.9
2018-Jul-12 19:59N 62°37' E 007°22'1 0.1
2018-Jul-12 11:28N 62°37' E 007°23'613.5
2018-Jul-12 10:59N 62°41' E 007°33'714.7
2018-Jul-12 10:30N 62°44' E 007°48'713.1
2018-Jul-12 10:00N 62°44' E 008°03'4 7.1
2018-Jul-12 09:30N 62°42' E 008°08'0 0.1
2018-Jul-12 08:59N 62°41' E 008°08'0 0.0
2018-Jul-12 08:29N 62°41' E 008°08'0 0.1
2018-Jul-12 07:59N 62°41' E 008°08'0 0.0
2018-Jul-12 07:29N 62°42' E 008°08'  
Track history (hours):
 
Tides and Currents Weather Stations Pressure Air Temp Water Temp Dewpoint Dewpoint Depression Visibility Wind Speed Wind Dir Waves Ship Positions

Albatros

Last reported at 2018-Jul-22 07:00 UTC. Time now 2018-Jul-22 07:03 UTC.
Position N 58°42' E 009°15'.

Length 205.5 m; beam 25.2 m; draft 7.6 m.

Type: Passenger vessel. MMSI: 308784000.

Date/timePositionNaut miles runAvg speedWind from/ knotsBaromVisibWave heightAir tempDewpointWater temp
2018-Jul-22 07:00N 58°42' E 009°15'0 0.1
2018-Jul-22 06:30N 58°42' E 009°15'0 0.1
2018-Jul-22 06:00N 58°42' E 009°15'0 0.1
2018-Jul-22 05:29N 58°42' E 009°15'0 0.3
2018-Jul-22 05:00N 58°42' E 009°15'1 1.7
2018-Jul-22 04:29N 58°42' E 009°16'714.1
2018-Jul-22 04:00N 58°45' E 009°28'815.4
2018-Jul-22 03:30N 58°51' E 009°38'714.5
2018-Jul-22 03:00N 58°56' E 009°48'4 8.1
2018-Jul-22 02:30N 58°54' E 009°54'4 7.4
2018-Jul-22 02:00N 58°52' E 010°00'3 6.7
2018-Jul-22 01:30N 58°51' E 010°06'3 6.9
2018-Jul-22 01:00N 58°49' E 010°12'3 6.0
2018-Jul-22 00:30N 58°48' E 010°18'2 4.6
2018-Jul-22 00:00N 58°49' E 010°22'3 6.5
2018-Jul-21 23:30N 58°51' E 010°27'511.1
2018-Jul-21 23:01N 58°56' E 010°32'713.6
2018-Jul-21 22:30N 59°03' E 010°34'510.7
2018-Jul-21 22:01N 59°08' E 010°37'713.0
2018-Jul-21 21:30N 59°15' E 010°37'714.1
2018-Jul-21 21:00N 59°22' E 010°34'713.9
2018-Jul-21 20:30N 59°28' E 010°33'714.4
2018-Jul-21 20:00N 59°35' E 010°38'612.5
2018-Jul-21 19:31N 59°41' E 010°36'611.5
2018-Jul-21 19:00N 59°47' E 010°34'713.4
2018-Jul-21 18:30N 59°53' E 010°40'3 5.0
2018-Jul-21 18:00N 59°54' E 010°44'0 0.0
2018-Jul-21 17:30N 59°54' E 010°44'0 0.0
2018-Jul-21 17:00N 59°54' E 010°44'0 0.0
2018-Jul-21 16:30N 59°54' E 010°44'0 0.0
2018-Jul-21 16:00N 59°54' E 010°44'0 0.0
2018-Jul-21 15:30N 59°54' E 010°44'0 0.0
2018-Jul-21 15:00N 59°54' E 010°44'0 0.0
2018-Jul-21 14:30N 59°54' E 010°44'0 0.0
2018-Jul-21 13:30N 59°54' E 010°44'0 0.0
2018-Jul-21 13:00N 59°54' E 010°44'0 0.0
2018-Jul-21 12:30N 59°54' E 010°44'0 0.0
2018-Jul-21 12:00N 59°54' E 010°44'0 0.0
2018-Jul-21 11:30N 59°54' E 010°44'0 0.0
2018-Jul-21 11:00N 59°54' E 010°44'0 0.0
2018-Jul-21 10:30N 59°54' E 010°44'0 0.0
2018-Jul-21 10:00N 59°54' E 010°44'0 0.0
2018-Jul-21 09:30N 59°54' E 010°44'0 0.0
2018-Jul-21 09:00N 59°54' E 010°44'0 0.0
2018-Jul-21 08:30N 59°54' E 010°44'0 0.0
2018-Jul-21 08:00N 59°54' E 010°44'0 0.0
2018-Jul-21 07:30N 59°54' E 010°44'0 0.0
2018-Jul-21 07:00N 59°54' E 010°44'1 1.1
2018-Jul-21 06:30N 59°54' E 010°43'611.2
2018-Jul-21 06:00N 59°50' E 010°36'714.9
2018-Jul-21 05:30N 59°42' E 010°36'612.0
2018-Jul-21 05:00N 59°37' E 010°38'917.0
2018-Jul-21 04:30N 59°28' E 010°34'917.5
2018-Jul-21 04:00N 59°20' E 010°36'816.9
2018-Jul-21 03:30N 59°11' E 010°39'713.9
2018-Jul-21 03:01N 59°05' E 010°35'510.5
2018-Jul-21 02:31N 58°59' E 010°35'612.4
2018-Jul-21 02:00N 58°53' E 010°34'612.2
2018-Jul-21 01:31N 58°47' E 010°34'5 9.4
2018-Jul-21 01:00N 58°42' E 010°34'510.5
2018-Jul-21 00:31N 58°37' E 010°34'4 7.8
2018-Jul-21 00:01N 58°33' E 010°34'4 7.6
2018-Jul-20 23:31N 58°29' E 010°34'4 7.5
2018-Jul-20 23:01N 58°26' E 010°36'4 7.5
2018-Jul-20 22:30N 58°22' E 010°37'4 8.3
2018-Jul-20 22:00N 58°18' E 010°38'4 9.0
2018-Jul-20 21:31N 58°14' E 010°40'5 9.9
2018-Jul-20 21:01N 58°09' E 010°41'4 9.0
2018-Jul-20 20:31N 58°04' E 010°43'4 8.8
2018-Jul-20 20:01N 57°60' E 010°44'5 9.1
2018-Jul-20 19:31N 57°55' E 010°45'611.6
2018-Jul-20 19:00N 57°50' E 010°46'612.8
2018-Jul-20 18:30N 57°44' E 010°42'4 7.5
2018-Jul-20 18:00N 57°43' E 010°35'0 0.0
2018-Jul-20 17:25N 57°43' E 010°35'0 0.0
2018-Jul-20 16:55N 57°43' E 010°35'0 0.0
2018-Jul-20 16:25N 57°43' E 010°35'0 0.0
2018-Jul-20 15:55N 57°43' E 010°35'0 0.0
2018-Jul-20 15:25N 57°43' E 010°35'0 0.0
2018-Jul-20 14:55N 57°43' E 010°35'0 0.0
2018-Jul-20 14:28N 57°43' E 010°35'0 0.0
2018-Jul-20 13:52N 57°43' E 010°35'0 0.0
2018-Jul-20 12:34N 57°43' E 010°35'0 0.0
2018-Jul-20 12:22N 57°43' E 010°35'0 0.0
2018-Jul-20 11:16N 57°43' E 010°35'0 0.0
2018-Jul-20 10:56N 57°43' E 010°35'0 0.0
2018-Jul-20 10:29N 57°43' E 010°35'0 0.0
2018-Jul-20 09:55N 57°43' E 010°35'0 0.0
2018-Jul-20 09:30N 57°43' E 010°35'0 0.0
2018-Jul-20 08:51N 57°43' E 010°35'0 0.0
2018-Jul-20 08:29N 57°43' E 010°35'0 0.0
2018-Jul-20 07:58N 57°43' E 010°35'0 0.0
2018-Jul-20 07:30N 57°43' E 010°35'0 0.0
2018-Jul-20 07:00N 57°43' E 010°35'0 0.0
2018-Jul-20 06:31N 57°43' E 010°35'1 2.7
2018-Jul-20 06:00N 57°43' E 010°38'4 8.4
2018-Jul-20 05:30N 57°42' E 010°46'612.7
2018-Jul-20 05:00N 57°41' E 010°57'611.9
2018-Jul-20 04:30N 57°38' E 011°07'612.4
2018-Jul-20 04:00N 57°33' E 011°15'612.3
2018-Jul-20 03:30N 57°29' E 011°24'612.0
2018-Jul-20 03:00N 57°24' E 011°29'612.8
2018-Jul-20 02:31N 57°18' E 011°33'612.8
2018-Jul-20 02:00N 57°12' E 011°37'612.4
2018-Jul-20 01:30N 57°06' E 011°41'713.3
2018-Jul-20 01:00N 56°60' E 011°45'714.1
2018-Jul-20 00:30N 56°53' E 011°50'713.8
2018-Jul-20 00:00N 56°47' E 011°54'713.8
2018-Jul-19 23:28N 56°39' E 011°57'3612.7
2018-Jul-19 20:36N 56°08' E 012°31'113.1
2018-Jul-19 20:30N 56°07' E 012°32'612.8
2018-Jul-19 20:01N 56°02' E 012°40'612.8
2018-Jul-19 19:31N 55°56' E 012°43'613.0
2018-Jul-19 19:00N 55°50' E 012°45'612.9
2018-Jul-19 18:30N 55°44' E 012°40'3 5.8
2018-Jul-19 18:00N 55°42' E 012°36'0 0.0
2018-Jul-19 17:30N 55°42' E 012°36'0 0.0
2018-Jul-19 17:00N 55°42' E 012°36'0 0.0
2018-Jul-19 16:30N 55°42' E 012°36'0 0.0
2018-Jul-19 16:00N 55°42' E 012°36'0 0.0
2018-Jul-19 15:30N 55°42' E 012°36'0 0.0
2018-Jul-19 15:00N 55°42' E 012°36'0 0.0
2018-Jul-19 14:00N 55°42' E 012°36'0 0.0
2018-Jul-19 13:24N 55°42' E 012°36'0 0.0
2018-Jul-19 13:00N 55°42' E 012°36'0 0.0
2018-Jul-19 12:30N 55°42' E 012°36'0 0.0
2018-Jul-19 12:00N 55°42' E 012°36'0 0.0
2018-Jul-19 11:30N 55°42' E 012°36'0 0.0
2018-Jul-19 10:54N 55°42' E 012°36'0 0.0
2018-Jul-19 10:30N 55°42' E 012°36'0 0.0
2018-Jul-19 10:00N 55°42' E 012°36'0 0.0
2018-Jul-19 09:30N 55°42' E 012°36'0 0.0
2018-Jul-19 09:00N 55°42' E 012°36'0 0.0
2018-Jul-19 08:30N 55°42' E 012°36'0 0.0
2018-Jul-19 08:00N 55°42' E 012°36'0 0.0
2018-Jul-19 07:30N 55°42' E 012°36'0 0.0
2018-Jul-19 07:00N 55°42' E 012°36'0 0.0
2018-Jul-19 06:30N 55°42' E 012°36'0 0.0
2018-Jul-19 06:00N 55°42' E 012°36'0 0.0
2018-Jul-19 05:30N 55°42' E 012°36'0 0.0
2018-Jul-19 05:00N 55°42' E 012°36'0 0.0
2018-Jul-19 04:30N 55°42' E 012°36'0 0.0
2018-Jul-19 04:00N 55°42' E 012°36'0 0.0
2018-Jul-19 03:30N 55°42' E 012°36'0 0.0
2018-Jul-19 03:00N 55°42' E 012°36'0 0.0
2018-Jul-19 02:30N 55°42' E 012°36'0 0.0
2018-Jul-19 02:00N 55°42' E 012°36'0 0.0
2018-Jul-19 01:30N 55°42' E 012°36'0 0.0
2018-Jul-19 01:00N 55°42' E 012°36'0 0.0
2018-Jul-19 00:30N 55°42' E 012°36'0 0.0
2018-Jul-19 00:00N 55°42' E 012°36'0 0.0
2018-Jul-18 23:30N 55°42' E 012°36'0 0.0
2018-Jul-18 23:00N 55°42' E 012°36'0 0.0
2018-Jul-18 22:30N 55°42' E 012°36'0 0.0
2018-Jul-18 22:00N 55°42' E 012°36'0 0.0
2018-Jul-18 21:30N 55°42' E 012°36'0 0.0
2018-Jul-18 21:00N 55°42' E 012°36'0 0.0
2018-Jul-18 20:30N 55°42' E 012°36'0 0.0
2018-Jul-18 20:00N 55°42' E 012°36'0 0.0
2018-Jul-18 19:30N 55°42' E 012°36'0 0.0
2018-Jul-18 18:59N 55°42' E 012°36'1 1.7
2018-Jul-18 18:30N 55°43' E 012°37'3 6.8
2018-Jul-18 18:00N 55°40' E 012°41'510.7
2018-Jul-18 17:30N 55°35' E 012°42'510.0
2018-Jul-18 17:00N 55°30' E 012°43'612.9
2018-Jul-18 16:30N 55°24' E 012°41'713.1
2018-Jul-18 16:01N 55°17' E 012°45'816.8
2018-Jul-18 15:30N 55°14' E 012°58'917.1
2018-Jul-18 15:00N 55°09' E 013°11'1816.7
2018-Jul-18 13:56N 54°56' E 013°33'15 2.9
2018-Jul-18 08:31N 54°41' E 013°38'211.5
2018-Jul-18 08:22N 54°42' E 013°36'812.8
2018-Jul-18 07:46N 54°49' E 013°29'412.9
2018-Jul-18 07:29N 54°50' E 013°23'812.2
2018-Jul-18 06:48N 54°49' E 013°09'1812.8
2018-Jul-18 05:24N 54°43' E 012°39'712.9
2018-Jul-18 04:53N 54°39' E 012°30'613.6
2018-Jul-18 04:29N 54°36' E 012°22'813.9
2018-Jul-18 03:55N 54°29' E 012°16'513.2
2018-Jul-18 03:30N 54°25' E 012°10'713.0
2018-Jul-18 03:00N 54°24' E 011°59'713.5
2018-Jul-18 02:30N 54°24' E 011°48'713.4
2018-Jul-18 02:00N 54°27' E 011°37'714.0
2018-Jul-18 01:30N 54°30' E 011°27'713.5
2018-Jul-18 01:00N 54°33' E 011°16'713.4
2018-Jul-18 00:31N 54°35' E 011°05'713.7
2018-Jul-18 00:00N 54°34' E 010°53'714.2
2018-Jul-17 23:30N 54°34' E 010°41'713.9
2018-Jul-17 23:00N 54°33' E 010°29'713.7
2018-Jul-17 22:30N 54°34' E 010°18'713.1
2018-Jul-17 22:00N 54°32' E 010°06'10 1.3
2018-Jul-17 14:13N 54°28' E 009°51'0 0.0
2018-Jul-17 11:22N 54°28' E 009°51'0 0.0
2018-Jul-17 10:37N 54°28' E 009°51'0 0.0
2018-Jul-17 10:28N 54°28' E 009°51'14 9.1
2018-Jul-17 08:54N 54°33' E 010°14'510.1
2018-Jul-17 08:26N 54°29' E 010°17'612.8
2018-Jul-17 08:00N 54°24' E 010°12'3 6.4
2018-Jul-17 07:31N 54°22' E 010°09'0 0.2
2018-Jul-17 07:00N 54°22' E 010°08'2 4.6
2018-Jul-17 06:31N 54°22' E 010°05'4 7.4
2018-Jul-17 05:55N 54°21' E 009°58'4 8.1
2018-Jul-17 05:27N 54°22' E 009°51'3 7.8
2018-Jul-17 05:01N 54°21' E 009°46'4 8.1
2018-Jul-17 04:30N 54°18' E 009°41'3 5.5
2018-Jul-17 04:01N 54°16' E 009°38'1 2.2
2018-Jul-17 03:30N 54°15' E 009°37'3 6.8
2018-Jul-17 03:00N 54°12' E 009°34'4 8.5
2018-Jul-17 02:31N 54°11' E 009°27'4 7.4
2018-Jul-17 02:01N 54°09' E 009°21'4 7.8
2018-Jul-17 01:30N 54°05' E 009°19'4 8.4
2018-Jul-17 01:00N 54°01' E 009°18'4 7.9
2018-Jul-17 00:30N 53°58' E 009°15'5 5.3
2018-Jul-16 23:31N 53°54' E 009°09'1 2.0
2018-Jul-16 23:00N 53°53' E 009°07'3 6.8
2018-Jul-16 22:31N 53°52' E 009°02'611.7
2018-Jul-16 22:00N 53°50' E 008°52'510.6
2018-Jul-16 21:30N 53°52' E 008°44'613.0
2018-Jul-16 21:00N 53°57' E 008°37'816.7
2018-Jul-16 20:30N 53°59' E 008°24'816.8
2018-Jul-16 20:00N 53°59' E 008°09'917.9
2018-Jul-16 19:30N 53°55' E 007°56'713.2
2018-Jul-16 19:00N 53°50' E 008°03'1020.2
2018-Jul-16 18:30N 53°44' E 008°16'1020.5
2018-Jul-16 18:00N 53°37' E 008°29'4 7.9
2018-Jul-16 17:30N 53°34' E 008°33'0 0.0
2018-Jul-16 17:00N 53°34' E 008°33'0 0.0
2018-Jul-16 16:27N 53°34' E 008°33'0 0.0
2018-Jul-16 16:00N 53°34' E 008°33'0 0.0
2018-Jul-16 15:30N 53°34' E 008°33'0 0.0
2018-Jul-16 15:00N 53°34' E 008°33'0 0.0
2018-Jul-16 14:30N 53°34' E 008°33'0 0.0
2018-Jul-16 14:00N 53°34' E 008°33'0 0.0
2018-Jul-16 13:30N 53°34' E 008°33'0 0.0
2018-Jul-16 13:00N 53°34' E 008°33'0 0.0
2018-Jul-16 12:30N 53°34' E 008°33'0 0.0
2018-Jul-16 11:57N 53°34' E 008°33'0 0.0
2018-Jul-16 11:30N 53°34' E 008°33'0 0.0
2018-Jul-16 11:00N 53°34' E 008°33'0 0.0
2018-Jul-16 10:30N 53°34' E 008°33'0 0.0
2018-Jul-16 10:00N 53°34' E 008°33'0 0.0
2018-Jul-16 09:30N 53°34' E 008°33'0 0.0
2018-Jul-16 09:00N 53°34' E 008°33'0 0.0
2018-Jul-16 08:30N 53°34' E 008°33'0 0.0
2018-Jul-16 08:00N 53°34' E 008°33'0 0.0
2018-Jul-16 07:30N 53°34' E 008°33'0 0.0
2018-Jul-16 07:00N 53°34' E 008°33'0 0.0
2018-Jul-16 06:30N 53°34' E 008°33'0 0.0
2018-Jul-16 06:00N 53°34' E 008°33'1 1.6
2018-Jul-16 05:30N 53°34' E 008°32'510.3
2018-Jul-16 05:00N 53°38' E 008°26'611.9
2018-Jul-16 04:30N 53°42' E 008°19'713.7
2018-Jul-16 04:00N 53°46' E 008°10'713.8
2018-Jul-16 03:30N 53°51' E 008°01'713.4
2018-Jul-16 03:00N 53°52' E 007°50'611.1
2018-Jul-16 02:30N 53°54' E 007°41'713.0
2018-Jul-16 02:00N 53°60' E 007°36'713.8
2018-Jul-16 01:30N 54°06' E 007°31'714.0
2018-Jul-16 01:01N 54°12' E 007°25'815.0
2018-Jul-16 00:30N 54°19' E 007°20'815.1
2018-Jul-16 00:00N 54°26' E 007°15'815.0
2018-Jul-15 23:30N 54°33' E 007°10'815.2
2018-Jul-15 23:00N 54°40' E 007°05'915.4
2018-Jul-15 22:26N 54°48' E 006°59'18016.4
2018-Jul-15 11:29N 57°48' E 006°49'817.4
2018-Jul-15 11:00N 57°56' E 006°50'713.7
2018-Jul-15 10:29N 58°03' E 006°51'4 8.6
2018-Jul-15 10:00N 58°03' E 006°59'4 8.6
2018-Jul-15 09:30N 58°07' E 007°03'0 0.2
2018-Jul-15 08:59N 58°07' E 007°03'0 0.1
2018-Jul-15 08:30N 58°07' E 007°03'0 0.1
2018-Jul-15 08:00N 58°07' E 007°03'0 0.1
2018-Jul-15 07:28N 58°07' E 007°03'0 0.2
2018-Jul-15 07:00N 58°07' E 007°03'0 0.1
2018-Jul-15 06:30N 58°07' E 007°03'0 0.1
2018-Jul-15 06:00N 58°07' E 007°03'0 0.0
2018-Jul-15 05:30N 58°07' E 007°03'3 6.1
2018-Jul-15 05:00N 58°05' E 007°00'612.6
2018-Jul-15 04:30N 58°01' E 006°50'611.1
2018-Jul-15 04:00N 58°01' E 006°40'712.6
2018-Jul-15 03:29N 58°02' E 006°27'612.7
2018-Jul-15 03:00N 58°06' E 006°18'713.0
2018-Jul-15 02:27N 58°11' E 006°08'613.1
2018-Jul-15 02:00N 58°15' E 005°60'713.1
2018-Jul-15 01:29N 58°19' E 005°50'613.3
2018-Jul-15 01:00N 58°24' E 005°41'613.1
2018-Jul-15 00:30N 58°27' E 005°31'713.2
2018-Jul-15 00:01N 58°32' E 005°23'714.8
2018-Jul-14 23:31N 58°39' E 005°17'815.1
2018-Jul-14 23:00N 58°46' E 005°10'815.1
2018-Jul-14 22:30N 58°53' E 005°04'814.9
2018-Jul-14 21:59N 58°60' E 004°57'2713.6
2018-Jul-14 19:59N 59°26' E 004°44'714.3
2018-Jul-14 19:30N 59°33' E 004°46'714.4
2018-Jul-14 19:00N 59°40' E 004°48'714.7
2018-Jul-14 18:30N 59°47' E 004°50'714.4
2018-Jul-14 18:00N 59°54' E 004°52'714.2
2018-Jul-14 17:30N 60°01' E 004°54'714.1
2018-Jul-14 17:00N 60°08' E 004°57'713.1
2018-Jul-14 16:29N 60°11' E 005°10'713.7
2018-Jul-14 15:59N 60°17' E 005°11'611.8
2018-Jul-14 15:30N 60°23' E 005°10'4 8.1
2018-Jul-14 14:59N 60°24' E 005°19'0 0.1
2018-Jul-14 14:31N 60°24' E 005°19'0 0.0
2018-Jul-14 13:31N 60°24' E 005°19'0 0.0
2018-Jul-14 13:01N 60°24' E 005°19'0 0.0
2018-Jul-14 12:31N 60°24' E 005°19'0 0.0
2018-Jul-14 12:01N 60°24' E 005°19'0 0.0
2018-Jul-14 11:30N 60°24' E 005°19'0 0.0
2018-Jul-14 10:57N 60°24' E 005°19'0 0.0
2018-Jul-14 10:30N 60°24' E 005°19'0 0.0
2018-Jul-14 10:00N 60°24' E 005°19'0 0.0
2018-Jul-14 09:31N 60°24' E 005°19'0 0.0
2018-Jul-14 09:00N 60°24' E 005°19'0 0.0
2018-Jul-14 08:31N 60°24' E 005°19'0 0.0
2018-Jul-14 08:00N 60°24' E 005°19'0 0.0
2018-Jul-14 07:27N 60°24' E 005°19'0 0.0
2018-Jul-14 07:00N 60°24' E 005°19'0 0.8
2018-Jul-14 06:30N 60°24' E 005°18'4 7.9
2018-Jul-14 05:59N 60°23' E 005°10'611.4
2018-Jul-14 05:30N 60°27' E 005°01'715.2
2018-Jul-14 05:01N 60°34' E 004°55'815.2
2018-Jul-14 04:31N 60°41' E 004°50'714.7
2018-Jul-14 04:01N 60°45' E 004°38'816.5
2018-Jul-14 03:31N 60°50' E 004°25'9215.5
2018-Jul-13 21:35N 62°22' E 004°46'117.4
2018-Jul-13 21:30N 62°22' E 004°49'917.6
2018-Jul-13 21:00N 62°24' E 005°07'917.5
2018-Jul-13 20:31N 62°26' E 005°25'917.4
2018-Jul-13 20:00N 62°27' E 005°44'917.3
2018-Jul-13 19:30N 62°27' E 006°03'3 5.9
2018-Jul-13 18:58N 62°28' E 006°09'0 0.0
2018-Jul-13 18:28N 62°28' E 006°09'0 0.0
2018-Jul-13 17:58N 62°28' E 006°09'0 0.0
2018-Jul-13 17:28N 62°28' E 006°09'0 0.0
2018-Jul-13 16:59N 62°28' E 006°09'1 1.8
2018-Jul-13 16:31N 62°28' E 006°11'4 8.5
2018-Jul-13 16:00N 62°24' E 006°07'1019.0
2018-Jul-13 15:30N 62°25' E 006°27'918.6
2018-Jul-13 15:00N 62°27' E 006°47'1717.2
2018-Jul-13 14:00N 62°11' E 007°01'610.9
2018-Jul-13 13:29N 62°06' E 007°04'2 4.0
2018-Jul-13 13:00N 62°07' E 007°07'2 4.3
2018-Jul-13 12:25N 62°06' E 007°12'0 0.0
2018-Jul-13 11:55N 62°06' E 007°12'0 0.0
2018-Jul-13 11:25N 62°06' E 007°12'0 0.0
2018-Jul-13 10:49N 62°06' E 007°12'0 0.0
2018-Jul-13 10:25N 62°06' E 007°12'0 0.0
2018-Jul-13 09:55N 62°06' E 007°12'0 0.0
2018-Jul-13 09:25N 62°06' E 007°12'0 0.0
2018-Jul-13 08:55N 62°06' E 007°12'0 0.0
2018-Jul-13 08:25N 62°06' E 007°12'0 0.0
2018-Jul-13 07:55N 62°06' E 007°12'0 0.0
2018-Jul-13 07:25N 62°06' E 007°12'0 0.0
2018-Jul-13 06:55N 62°06' E 007°12'0 0.0
2018-Jul-13 06:25N 62°06' E 007°12'0 0.0
2018-Jul-13 05:55N 62°06' E 007°12'0 0.0
2018-Jul-13 05:25N 62°06' E 007°12'0 0.0
2018-Jul-13 04:55N 62°06' E 007°12'0 0.1
2018-Jul-13 04:24N 62°06' E 007°12'1 1.5
2018-Jul-13 04:00N 62°07' E 007°11'4 8.8
2018-Jul-13 03:30N 62°06' E 007°02'4 8.8
2018-Jul-13 03:00N 62°10' E 007°01'612.7
2018-Jul-13 02:30N 62°16' E 007°01'612.6
2018-Jul-13 02:00N 62°22' E 006°56'611.3
2018-Jul-13 01:30N 62°27' E 006°49'714.2
2018-Jul-13 01:00N 62°26' E 006°34'715.1
2018-Jul-13 00:30N 62°24' E 006°18'713.7
2018-Jul-12 23:58N 62°25' E 006°03'612.3
2018-Jul-12 23:31N 62°30' E 006°09'712.9
2018-Jul-12 23:00N 62°36' E 006°08'3 6.1
2018-Jul-12 22:30N 62°38' E 006°14'612.7
2018-Jul-12 22:00N 62°38' E 006°28'713.2
2018-Jul-12 21:30N 62°39' E 006°42'713.3
2018-Jul-12 21:00N 62°42' E 006°55'612.4
2018-Jul-12 20:29N 62°40' E 007°09'612.9
2018-Jul-12 19:59N 62°37' E 007°22'1 0.1
2018-Jul-12 11:28N 62°37' E 007°23'613.5
2018-Jul-12 10:59N 62°41' E 007°33'714.7
2018-Jul-12 10:30N 62°44' E 007°48'713.1
2018-Jul-12 10:00N 62°44' E 008°03'4 7.1
2018-Jul-12 09:30N 62°42' E 008°08'0 0.1
2018-Jul-12 08:59N 62°41' E 008°08'0 0.0
2018-Jul-12 08:29N 62°41' E 008°08'0 0.1
2018-Jul-12 07:59N 62°41' E 008°08'0 0.0
2018-Jul-12 07:29N 62°42' E 008°08'  

Dump ship's entire track history